Time;durP1;ratioP1;P1;durP2;ratioP2;P2;SDS_P1;SDS_P2;PMS_P1;PMS_P2;Temp;Humidity;BMP_temperature;BMP_pressure;BME280_temperature;BME280_humidity;BME280_pressure;Samples;Min_cycle;Max_cycle;Signal;HPM_P1;HPM_P2
2024/02/04 00:00:25;;;;;;;;;;;9.30;90.10;;;;;;4970441;28;20036;-67
2024/02/04 00:02:59;;;;;;;;;;;9.30;90.10;;;;;;4968881;28;19988;-67
2024/02/04 00:05:32;;;;;;;;;;;9.30;90.10;;;;;;4971497;28;19932;-67
2024/02/04 00:08:06;;;;;;;;;;;9.30;90.10;;;;;;4968341;28;19954;-66
2024/02/04 00:10:32;;;;;;;;;;;9.30;90.10;;;;;;4971351;28;19926;-64
2024/02/04 00:13:05;;;;;;;;;;;9.30;90.00;;;;;;4972179;28;19945;-66
2024/02/04 00:15:39;;;;;;;;;;;9.30;90.00;;;;;;4967890;28;20427;-67
2024/02/04 00:18:13;;;;;;;;;;;9.30;90.10;;;;;;4976859;28;19930;-65
2024/02/04 00:20:40;;;;;;;;;;;9.30;90.10;;;;;;4986397;28;19930;-67
2024/02/04 00:23:19;;;;;;;;;;;9.30;90.10;;;;;;4967413;28;19930;-67
2024/02/04 00:25:53;;;;;;;;;;;9.30;90.10;;;;;;4971126;28;19930;-67
2024/02/04 00:28:27;;;;;;;;;;;9.30;90.20;;;;;;4968173;28;20309;-66
2024/02/04 00:31:01;;;;;;;;;;;9.30;90.10;;;;;;4971953;28;19932;-66
2024/02/04 00:33:35;;;;;;;;;;;9.30;90.10;;;;;;4972078;28;19927;-66
2024/02/04 00:36:08;;;;;;;;;;;9.20;90.30;;;;;;4967522;28;19930;-67
2024/02/04 00:38:41;;;;;;;;;;;9.30;90.40;;;;;;4970049;28;19933;-68
2024/02/04 00:41:14;;;;;;;;;;;9.30;90.40;;;;;;4971348;28;20423;-66
2024/02/04 00:43:41;;;;;;;;;;;9.30;90.40;;;;;;4971203;28;19940;-66
2024/02/04 00:46:15;;;;;;;;;;;9.30;90.50;;;;;;4962811;28;19926;-66
2024/02/04 00:48:42;;;;;;;;;;;9.30;90.50;;;;;;4970578;28;19930;-67
2024/02/04 00:51:16;;;;;;;;;;;9.20;90.70;;;;;;4967158;28;19932;-64
2024/02/04 00:53:50;;;;;;;;;;;9.20;90.80;;;;;;4968144;28;20296;-67
2024/02/04 00:56:23;;;;;;;;;;;9.30;90.80;;;;;;4968326;28;20049;-65
2024/02/04 00:58:56;;;;;;;;;;;9.20;90.90;;;;;;4984032;28;20017;-66
2024/02/04 01:01:30;;;;;;;;;;;9.20;90.90;;;;;;4963099;28;19930;-66
2024/02/04 01:04:04;;;;;;;;;;;9.20;91.20;;;;;;4970914;28;19938;-67
2024/02/04 01:06:46;;;;;;;;;;;9.20;91.30;;;;;;4970142;28;19937;-65
2024/02/04 01:09:19;;;;;;;;;;;9.20;91.40;;;;;;4970963;28;19926;-65
2024/02/04 01:11:53;;;;;;;;;;;9.20;91.30;;;;;;4969896;28;20000;-66
2024/02/04 01:14:19;;;;;;;;;;;9.20;91.40;;;;;;4969416;28;20385;-66
2024/02/04 01:16:53;;;;;;;;;;;9.20;91.50;;;;;;4969324;28;19930;-66
2024/02/04 01:19:27;;;;;;;;;;;9.20;91.50;;;;;;4970189;28;19934;-65
2024/02/04 01:22:00;;;;;;;;;;;9.20;91.50;;;;;;4962251;28;20077;-65
2024/02/04 01:24:41;;;;;;;;;;;9.20;91.40;;;;;;4968182;28;19985;-65
2024/02/04 01:27:14;;;;;;;;;;;9.20;91.60;;;;;;4961775;28;19926;-66
2024/02/04 01:29:47;;;;;;;;;;;9.20;91.50;;;;;;4970153;28;20237;-66
2024/02/04 01:32:21;;;;;;;;;;;9.20;91.60;;;;;;4978986;28;20009;-66
2024/02/04 01:34:55;;;;;;;;;;;9.10;91.60;;;;;;4969133;28;20742;-64
2024/02/04 01:37:28;;;;;;;;;;;9.20;91.50;;;;;;4969280;28;19937;-66
2024/02/04 01:40:02;;;;;;;;;;;9.20;91.40;;;;;;4968223;28;20272;-66
2024/02/04 01:42:35;;;;;;;;;;;9.20;91.50;;;;;;4969972;28;20444;-66
2024/02/04 01:45:08;;;;;;;;;;;9.20;91.50;;;;;;4969699;28;19934;-66
2024/02/04 01:47:43;;;;;;;;;;;9.20;91.60;;;;;;4969156;28;19956;-65
2024/02/04 01:50:10;;;;;;;;;;;9.10;91.50;;;;;;4966655;28;20360;-65
2024/02/04 01:52:44;;;;;;;;;;;9.20;91.40;;;;;;4968595;28;20016;-66
2024/02/04 01:55:18;;;;;;;;;;;9.20;91.40;;;;;;4968937;28;19930;-65
2024/02/04 01:57:51;;;;;;;;;;;9.20;91.40;;;;;;4968437;28;20004;-67
2024/02/04 02:00:24;;;;;;;;;;;9.20;91.40;;;;;;4961871;28;19933;-63
2024/02/04 02:02:59;;;;;;;;;;;9.10;91.40;;;;;;4969219;28;20030;-67
2024/02/04 02:05:33;;;;;;;;;;;9.20;91.40;;;;;;4968378;28;20269;-66
2024/02/04 02:08:07;;;;;;;;;;;9.10;91.40;;;;;;4968679;28;19930;-66
2024/02/04 02:10:42;;;;;;;;;;;9.10;91.40;;;;;;4968453;28;20392;-65
2024/02/04 02:13:18;;;;;;;;;;;9.10;91.50;;;;;;4969332;28;19930;-67
2024/02/04 02:15:53;;;;;;;;;;;9.20;91.40;;;;;;4967044;28;19930;-65
2024/02/04 02:18:37;;;;;;;;;;;9.10;91.30;;;;;;4978118;28;20456;-65
2024/02/04 02:21:17;;;;;;;;;;;9.20;91.40;;;;;;4968207;28;20009;-65
2024/02/04 02:23:54;;;;;;;;;;;9.10;91.30;;;;;;4968557;28;19980;-66
2024/02/04 02:26:29;;;;;;;;;;;9.10;91.30;;;;;;4969150;28;20577;-66
2024/02/04 02:29:02;;;;;;;;;;;9.10;91.30;;;;;;4967250;28;19992;-66
2024/02/04 02:31:35;;;;;;;;;;;9.20;91.20;;;;;;4959087;28;19993;-64
2024/02/04 02:34:08;;;;;;;;;;;9.10;91.30;;;;;;4961111;28;20563;-66
2024/02/04 02:36:44;;;;;;;;;;;9.10;91.30;;;;;;4967362;28;19972;-66
2024/02/04 02:39:19;;;;;;;;;;;9.10;91.20;;;;;;4968912;28;19930;-67
2024/02/04 02:41:56;;;;;;;;;;;9.10;91.10;;;;;;4960392;28;19941;-65
2024/02/04 02:44:29;;;;;;;;;;;9.20;91.10;;;;;;4967734;28;19981;-66
2024/02/04 02:47:03;;;;;;;;;;;9.10;91.10;;;;;;4968914;28;19938;-65
2024/02/04 02:49:36;;;;;;;;;;;9.10;91.10;;;;;;4967640;28;19932;-66
2024/02/04 02:52:09;;;;;;;;;;;9.20;91.10;;;;;;4976943;28;19930;-71
2024/02/04 02:54:42;;;;;;;;;;;9.10;91.20;;;;;;4968643;28;19926;-70
2024/02/04 02:57:16;;;;;;;;;;;9.10;91.30;;;;;;4956383;28;20430;-71
2024/02/04 02:59:50;;;;;;;;;;;9.10;91.30;;;;;;4968354;28;19930;-71
2024/02/04 03:02:23;;;;;;;;;;;9.10;91.40;;;;;;4968425;28;20366;-70
2024/02/04 03:04:56;;;;;;;;;;;9.10;91.40;;;;;;4964941;28;19930;-71
2024/02/04 03:07:29;;;;;;;;;;;9.10;91.50;;;;;;4968482;28;19980;-71
2024/02/04 03:10:02;;;;;;;;;;;9.10;91.50;;;;;;4968540;28;19930;-71
2024/02/04 03:12:37;;;;;;;;;;;9.10;91.50;;;;;;4967217;28;19975;-72
2024/02/04 03:15:10;;;;;;;;;;;9.10;91.60;;;;;;4967875;28;20469;-69
2024/02/04 03:17:43;;;;;;;;;;;9.10;91.50;;;;;;4965797;28;19934;-71
2024/02/04 03:20:16;;;;;;;;;;;9.10;91.50;;;;;;4966021;28;19930;-72
2024/02/04 03:22:49;;;;;;;;;;;9.10;91.40;;;;;;4965455;28;19926;-72
2024/02/04 03:25:23;;;;;;;;;;;9.10;91.50;;;;;;4960218;28;20385;-70
2024/02/04 03:27:58;;;;;;;;;;;9.10;91.50;;;;;;4965963;28;19971;-72
2024/02/04 03:30:31;;;;;;;;;;;9.10;91.60;;;;;;4967122;28;19926;-71
2024/02/04 03:33:04;;;;;;;;;;;9.10;91.60;;;;;;4961895;28;19966;-71
2024/02/04 03:35:39;;;;;;;;;;;9.10;91.70;;;;;;4959863;28;19930;-71
2024/02/04 03:38:12;;;;;;;;;;;9.10;91.80;;;;;;4961600;28;20005;-70
2024/02/04 03:40:45;;;;;;;;;;;9.10;91.90;;;;;;4959591;28;20340;-70
2024/02/04 03:43:20;;;;;;;;;;;9.00;92.00;;;;;;4960229;28;19934;-70
2024/02/04 03:45:53;;;;;;;;;;;9.10;92.10;;;;;;4969385;28;19930;-70
2024/02/04 03:48:26;;;;;;;;;;;9.00;92.20;;;;;;4977061;28;19934;-71
2024/02/04 03:50:59;;;;;;;;;;;9.00;92.20;;;;;;4966454;28;19934;-71
2024/02/04 03:53:39;;;;;;;;;;;9.00;92.30;;;;;;4967822;28;20012;-70
2024/02/04 03:56:12;;;;;;;;;;;9.00;92.20;;;;;;4969724;28;20031;-72
2024/02/04 03:58:47;;;;;;;;;;;9.00;92.30;;;;;;4968019;28;20312;-70
2024/02/04 04:01:20;;;;;;;;;;;9.00;92.30;;;;;;4969233;28;19984;-61
2024/02/04 04:03:53;;;;;;;;;;;9.00;92.30;;;;;;4970525;28;19930;-76
2024/02/04 04:06:26;;;;;;;;;;;9.00;92.30;;;;;;4967123;28;20316;-77
2024/02/04 04:08:59;;;;;;;;;;;9.00;92.40;;;;;;4970097;28;20042;-77
2024/02/04 04:11:32;;;;;;;;;;;9.00;92.30;;;;;;4970136;28;19953;-75
2024/02/04 04:14:07;;;;;;;;;;;9.00;92.30;;;;;;4969984;28;19985;-75
2024/02/04 04:16:40;;;;;;;;;;;8.90;92.40;;;;;;4968871;28;20040;-74
2024/02/04 04:19:13;;;;;;;;;;;9.00;92.40;;;;;;4969508;28;19926;-76
2024/02/04 04:21:41;;;;;;;;;;;9.00;92.40;;;;;;4970380;28;20389;-75
2024/02/04 04:24:15;;;;;;;;;;;9.00;92.50;;;;;;4970684;28;19936;-77
2024/02/04 04:26:48;;;;;;;;;;;9.00;92.40;;;;;;4969637;28;19932;-76
2024/02/04 04:29:23;;;;;;;;;;;9.00;92.40;;;;;;4969395;28;19926;-75
2024/02/04 04:31:56;;;;;;;;;;;8.90;92.40;;;;;;4968411;28;19980;-77
2024/02/04 04:34:29;;;;;;;;;;;9.00;92.40;;;;;;4972709;28;20037;-76
2024/02/04 04:37:02;;;;;;;;;;;9.00;92.50;;;;;;4972168;28;20036;-76
2024/02/04 04:39:35;;;;;;;;;;;9.00;92.30;;;;;;4971374;28;19930;-76
2024/02/04 04:42:08;;;;;;;;;;;9.00;92.40;;;;;;4973106;28;19941;-77
2024/02/04 04:44:43;;;;;;;;;;;9.00;92.40;;;;;;4973076;28;19993;-77
2024/02/04 04:47:16;;;;;;;;;;;9.00;92.40;;;;;;4972626;28;19930;-78
2024/02/04 04:49:49;;;;;;;;;;;9.00;92.50;;;;;;4972769;28;19926;-77
2024/02/04 04:52:22;;;;;;;;;;;9.00;92.40;;;;;;4972467;28;20385;-75
2024/02/04 04:54:55;;;;;;;;;;;9.00;92.50;;;;;;4971754;28;19954;-76
2024/02/04 04:57:28;;;;;;;;;;;9.00;92.50;;;;;;4971933;28;20321;-75
2024/02/04 05:00:06;;;;;;;;;;;9.00;92.50;;;;;;4972938;28;19926;-76
2024/02/04 05:02:40;;;;;;;;;;;9.00;92.50;;;;;;4973377;28;19926;-77
2024/02/04 05:05:13;;;;;;;;;;;9.00;92.60;;;;;;4972555;28;19926;-77
2024/02/04 05:07:47;;;;;;;;;;;9.00;92.60;;;;;;4968487;28;19926;-75
2024/02/04 05:10:20;;;;;;;;;;;9.00;92.70;;;;;;4973500;28;19926;-76
2024/02/04 05:12:53;;;;;;;;;;;9.00;92.70;;;;;;4973016;28;19926;-77
2024/02/04 05:15:29;;;;;;;;;;;9.00;92.60;;;;;;4972305;28;19988;-77
2024/02/04 05:18:04;;;;;;;;;;;9.00;92.60;;;;;;4972751;28;20374;-74
2024/02/04 05:20:36;;;;;;;;;;;9.00;92.60;;;;;;4970963;28;20289;-75
2024/02/04 05:23:09;;;;;;;;;;;9.00;92.60;;;;;;4962459;28;20316;-61
2024/02/04 05:25:42;;;;;;;;;;;9.00;92.70;;;;;;4971386;28;19977;-62
2024/02/04 05:28:15;;;;;;;;;;;9.00;92.70;;;;;;4971498;28;19936;-66
2024/02/04 05:30:50;;;;;;;;;;;8.90;92.60;;;;;;4971588;28;19933;-62
2024/02/04 05:33:23;;;;;;;;;;;9.00;92.70;;;;;;4969886;28;19938;-66
2024/02/04 05:35:50;;;;;;;;;;;9.00;92.60;;;;;;4970497;28;19926;-61
2024/02/04 05:38:23;;;;;;;;;;;9.00;92.60;;;;;;4967282;28;19926;-65
2024/02/04 05:40:56;;;;;;;;;;;9.00;92.70;;;;;;4970692;28;20356;-61
2024/02/04 05:43:29;;;;;;;;;;;8.90;92.70;;;;;;4970745;28;20380;-61
2024/02/04 05:46:04;;;;;;;;;;;9.00;92.60;;;;;;4969810;28;20009;-62
2024/02/04 05:48:37;;;;;;;;;;;8.90;92.60;;;;;;4970451;28;19926;-62
2024/02/04 05:51:10;;;;;;;;;;;9.00;92.60;;;;;;4969810;28;19941;-62
2024/02/04 05:53:43;;;;;;;;;;;9.00;92.60;;;;;;4970815;28;19977;-62
2024/02/04 05:56:16;;;;;;;;;;;9.00;92.60;;;;;;4971692;28;19992;-61
2024/02/04 05:58:49;;;;;;;;;;;9.00;92.60;;;;;;4970656;28;19926;-61
2024/02/04 06:01:24;;;;;;;;;;;9.00;92.60;;;;;;4971084;28;20016;-61
2024/02/04 06:03:57;;;;;;;;;;;8.90;92.60;;;;;;4971206;28;20364;-62
2024/02/04 06:06:30;;;;;;;;;;;8.90;92.60;;;;;;4968649;28;19936;-63
2024/02/04 06:09:04;;;;;;;;;;;9.00;92.60;;;;;;4970929;28;19930;-62
2024/02/04 06:11:37;;;;;;;;;;;8.90;92.60;;;;;;4971431;28;19930;-61
2024/02/04 06:14:10;;;;;;;;;;;9.00;92.60;;;;;;4971025;28;19926;-62
2024/02/04 06:16:45;;;;;;;;;;;8.90;92.60;;;;;;4969369;28;19950;-62
2024/02/04 06:19:18;;;;;;;;;;;8.90;92.60;;;;;;4970687;28;19937;-62
2024/02/04 06:21:51;;;;;;;;;;;8.90;92.70;;;;;;4970947;28;19930;-62
2024/02/04 06:24:24;;;;;;;;;;;8.90;92.70;;;;;;4970142;28;19930;-63
2024/02/04 06:26:57;;;;;;;;;;;8.90;92.70;;;;;;4970065;28;20297;-60
2024/02/04 06:29:24;;;;;;;;;;;8.90;92.70;;;;;;4970610;28;20057;-63
2024/02/04 06:31:59;;;;;;;;;;;9.00;92.60;;;;;;4968862;28;19930;-66
2024/02/04 06:34:32;;;;;;;;;;;8.90;92.60;;;;;;4970096;28;20016;-66
2024/02/04 06:37:05;;;;;;;;;;;8.90;92.60;;;;;;4970545;28;19926;-65
2024/02/04 06:39:38;;;;;;;;;;;8.90;92.60;;;;;;4966802;28;19926;-66
2024/02/04 06:42:11;;;;;;;;;;;8.90;92.70;;;;;;4970351;28;19932;-66
2024/02/04 06:44:45;;;;;;;;;;;8.90;92.70;;;;;;4969646;28;19964;-66
2024/02/04 06:47:20;;;;;;;;;;;8.90;92.70;;;;;;4970418;28;19930;-65
2024/02/04 06:49:53;;;;;;;;;;;8.90;92.70;;;;;;4969553;28;19930;-65
2024/02/04 06:52:26;;;;;;;;;;;8.90;92.70;;;;;;4967614;28;19933;-66
2024/02/04 06:54:59;;;;;;;;;;;8.90;92.70;;;;;;4970037;28;19930;-66
2024/02/04 06:57:32;;;;;;;;;;;8.90;92.70;;;;;;4969745;28;20341;-65
2024/02/04 07:00:07;;;;;;;;;;;8.90;92.70;;;;;;4968907;28;20293;-67
2024/02/04 07:02:42;;;;;;;;;;;8.90;92.70;;;;;;4971148;28;19926;-65
2024/02/04 07:05:10;;;;;;;;;;;8.90;92.80;;;;;;4971969;28;20648;-66
2024/02/04 07:07:44;;;;;;;;;;;8.90;92.80;;;;;;4968851;28;19946;-65
2024/02/04 07:10:18;;;;;;;;;;;8.90;92.70;;;;;;4961646;28;19937;-66
2024/02/04 07:12:51;;;;;;;;;;;8.90;92.80;;;;;;4969451;28;20021;-66
2024/02/04 07:15:24;;;;;;;;;;;8.90;92.80;;;;;;4969632;28;19988;-66
2024/02/04 07:17:59;;;;;;;;;;;8.90;92.90;;;;;;4970391;28;19997;-65
2024/02/04 07:20:32;;;;;;;;;;;8.90;92.90;;;;;;4970397;28;20374;-67
2024/02/04 07:23:05;;;;;;;;;;;8.90;93.00;;;;;;4969782;28;20021;-66
2024/02/04 07:25:38;;;;;;;;;;;8.90;92.90;;;;;;4968040;28;19942;-65
2024/02/04 07:28:11;;;;;;;;;;;8.90;92.90;;;;;;4968220;28;19941;-65
2024/02/04 07:30:44;;;;;;;;;;;8.90;92.90;;;;;;4969166;28;20024;-67
2024/02/04 07:33:19;;;;;;;;;;;8.90;92.90;;;;;;4968825;28;19926;-66
2024/02/04 07:35:52;;;;;;;;;;;8.90;92.90;;;;;;4970043;28;19930;-66
2024/02/04 07:38:25;;;;;;;;;;;8.90;92.80;;;;;;4970146;28;19945;-66
2024/02/04 07:40:59;;;;;;;;;;;9.00;92.80;;;;;;4969368;28;19945;-65
2024/02/04 07:43:32;;;;;;;;;;;8.90;92.80;;;;;;4968099;28;19926;-71
2024/02/04 07:46:06;;;;;;;;;;;9.00;92.80;;;;;;4967478;28;19926;-70
2024/02/04 07:48:41;;;;;;;;;;;8.90;92.80;;;;;;4969108;28;19960;-70
2024/02/04 07:51:14;;;;;;;;;;;8.90;92.80;;;;;;4968998;28;19926;-71
2024/02/04 07:53:47;;;;;;;;;;;8.90;92.90;;;;;;4967052;28;19926;-69
2024/02/04 07:56:14;;;;;;;;;;;9.00;92.80;;;;;;4969948;28;19926;-70
2024/02/04 07:58:47;;;;;;;;;;;8.90;92.90;;;;;;4969378;28;20032;-70
2024/02/04 08:01:20;;;;;;;;;;;8.90;92.90;;;;;;4969538;28;19926;-71
2024/02/04 08:03:55;;;;;;;;;;;8.90;92.90;;;;;;4970088;28;20020;-71
2024/02/04 08:06:28;;;;;;;;;;;9.00;93.00;;;;;;4970837;28;20009;-70
2024/02/04 08:09:01;;;;;;;;;;;9.00;93.00;;;;;;4971462;28;20021;-71
2024/02/04 08:11:34;;;;;;;;;;;9.00;93.00;;;;;;4970607;28;19930;-71
2024/02/04 08:14:07;;;;;;;;;;;9.00;93.00;;;;;;4973408;28;20008;-70
2024/02/04 08:16:42;;;;;;;;;;;8.90;93.00;;;;;;4972799;28;19937;-70
2024/02/04 08:19:10;;;;;;;;;;;9.00;92.90;;;;;;4972177;28;19926;-70
2024/02/04 08:21:43;;;;;;;;;;;9.00;92.90;;;;;;4972712;28;20030;-71
2024/02/04 08:24:16;;;;;;;;;;;9.00;92.90;;;;;;4972084;28;21382;-72
2024/02/04 08:26:49;;;;;;;;;;;9.00;92.90;;;;;;4969570;28;20424;-71
2024/02/04 08:29:16;;;;;;;;;;;9.00;92.90;;;;;;4973377;28;20309;-71
2024/02/04 08:31:49;;;;;;;;;;;9.10;92.90;;;;;;4972511;28;19977;-72
2024/02/04 08:34:25;;;;;;;;;;;9.00;92.90;;;;;;4972137;28;20008;-71
2024/02/04 08:36:58;;;;;;;;;;;9.00;92.90;;;;;;4973062;28;20028;-70
2024/02/04 08:39:31;;;;;;;;;;;9.10;92.90;;;;;;4972813;28;19952;-70
2024/02/04 08:42:35;;;;;;;;;;;9.10;92.90;;;;;;4971142;28;19984;-71
2024/02/04 08:45:09;;;;;;;;;;;9.10;92.90;;;;;;4966011;28;19927;-71
2024/02/04 08:47:42;;;;;;;;;;;9.00;92.90;;;;;;4971972;28;20021;-70
2024/02/04 08:50:17;;;;;;;;;;;9.10;92.90;;;;;;4970360;28;19950;-69
2024/02/04 08:52:50;;;;;;;;;;;9.10;92.90;;;;;;4971690;28;20436;-61
2024/02/04 08:55:23;;;;;;;;;;;9.10;92.90;;;;;;4970045;28;20047;-64
2024/02/04 08:57:56;;;;;;;;;;;9.10;92.90;;;;;;4970027;28;19949;-62
2024/02/04 09:00:29;;;;;;;;;;;9.10;92.90;;;;;;4984167;28;19926;-62
2024/02/04 09:03:03;;;;;;;;;;;9.10;93.00;;;;;;4963654;28;19933;-62
2024/02/04 09:05:31;;;;;;;;;;;9.10;93.00;;;;;;4972013;28;19935;-62
2024/02/04 09:08:05;;;;;;;;;;;9.10;93.00;;;;;;4967490;28;19981;-64
2024/02/04 09:10:38;;;;;;;;;;;9.10;92.90;;;;;;4970211;28;19926;-61
2024/02/04 09:13:11;;;;;;;;;;;9.10;93.00;;;;;;4971921;28;19933;-61
2024/02/04 09:15:44;;;;;;;;;;;9.10;93.00;;;;;;4970222;28;19937;-62
2024/02/04 09:18:17;;;;;;;;;;;9.20;92.90;;;;;;4969632;28;19926;-61
2024/02/04 09:20:52;;;;;;;;;;;9.10;92.90;;;;;;4971562;28;19926;-61
2024/02/04 09:23:25;;;;;;;;;;;9.10;92.90;;;;;;4966893;28;20393;-62
2024/02/04 09:25:58;;;;;;;;;;;9.10;92.90;;;;;;4968433;28;20021;-61
2024/02/04 09:28:31;;;;;;;;;;;9.10;92.80;;;;;;4971031;28;19930;-62
2024/02/04 09:31:05;;;;;;;;;;;9.20;92.80;;;;;;4970874;28;19930;-62
2024/02/04 09:33:40;;;;;;;;;;;9.20;92.80;;;;;;4968623;28;19930;-63
2024/02/04 09:36:15;;;;;;;;;;;9.20;92.80;;;;;;4970820;28;20300;-60
2024/02/04 09:38:48;;;;;;;;;;;9.20;92.70;;;;;;4968571;28;19937;-62
2024/02/04 09:41:22;;;;;;;;;;;9.20;92.70;;;;;;4963452;28;19930;-61
2024/02/04 09:43:56;;;;;;;;;;;9.20;92.70;;;;;;4970148;28;19930;-62
2024/02/04 09:46:30;;;;;;;;;;;9.20;92.70;;;;;;4970714;28;20022;-62
2024/02/04 09:49:04;;;;;;;;;;;9.20;92.70;;;;;;4971088;28;19958;-64
2024/02/04 09:51:40;;;;;;;;;;;9.20;92.70;;;;;;4969750;28;19985;-60
2024/02/04 09:54:15;;;;;;;;;;;9.20;92.70;;;;;;4971178;28;20511;-63
2024/02/04 09:56:42;;;;;;;;;;;9.20;92.60;;;;;;4968430;28;19941;-64
2024/02/04 09:59:15;;;;;;;;;;;9.20;92.60;;;;;;4969878;28;19969;-61
2024/02/04 10:01:49;;;;;;;;;;;9.30;92.60;;;;;;4971501;28;19926;-77
2024/02/04 10:04:21;;;;;;;;;;;9.20;92.70;;;;;;4971764;28;19953;-77
2024/02/04 10:06:56;;;;;;;;;;;9.30;92.70;;;;;;4971161;28;19968;-77
2024/02/04 10:09:31;;;;;;;;;;;9.20;92.70;;;;;;4970109;28;19926;-77
2024/02/04 10:12:05;;;;;;;;;;;9.20;92.70;;;;;;4969418;28;19930;-76
2024/02/04 10:14:38;;;;;;;;;;;9.20;92.70;;;;;;4970831;28;19973;-77
2024/02/04 10:17:14;;;;;;;;;;;9.20;92.70;;;;;;4970325;28;19965;-77
2024/02/04 10:19:48;;;;;;;;;;;9.20;92.70;;;;;;4970514;28;19930;-77
2024/02/04 10:22:22;;;;;;;;;;;9.30;92.70;;;;;;4970877;28;19977;-77
2024/02/04 10:24:48;;;;;;;;;;;9.20;92.70;;;;;;4970727;28;20381;-78
2024/02/04 10:27:21;;;;;;;;;;;9.30;92.70;;;;;;4971124;28;19926;-77
2024/02/04 10:29:54;;;;;;;;;;;9.30;92.70;;;;;;4969941;28;19926;-75
2024/02/04 10:32:27;;;;;;;;;;;9.30;92.70;;;;;;4970851;28;19926;-79
2024/02/04 10:35:01;;;;;;;;;;;9.30;92.70;;;;;;4971127;28;19937;-76
2024/02/04 10:37:36;;;;;;;;;;;9.40;92.60;;;;;;4971222;28;19988;-78
2024/02/04 10:40:10;;;;;;;;;;;9.30;92.60;;;;;;4970566;28;20001;-77
2024/02/04 10:42:44;;;;;;;;;;;9.40;92.60;;;;;;4971527;28;19941;-76
2024/02/04 10:45:18;;;;;;;;;;;9.40;92.60;;;;;;4968586;28;19937;-77
2024/02/04 10:47:56;;;;;;;;;;;9.40;92.60;;;;;;4971307;28;19926;-76
2024/02/04 10:50:31;;;;;;;;;;;9.40;92.60;;;;;;4969825;28;19930;-77
2024/02/04 10:53:07;;;;;;;;;;;9.40;92.60;;;;;;4969707;28;19926;-77
2024/02/04 10:55:42;;;;;;;;;;;9.40;92.60;;;;;;4969402;28;19937;-77
2024/02/04 10:58:16;;;;;;;;;;;9.40;92.60;;;;;;4974843;28;19975;-73
2024/02/04 11:00:50;;;;;;;;;;;9.50;92.50;;;;;;4970788;28;19972;-77
2024/02/04 11:03:27;;;;;;;;;;;9.50;92.50;;;;;;4969719;28;20016;-75
2024/02/04 11:06:01;;;;;;;;;;;9.50;92.50;;;;;;4969544;28;19930;-77
2024/02/04 11:08:35;;;;;;;;;;;9.50;92.50;;;;;;4970438;28;19965;-73
2024/02/04 11:11:08;;;;;;;;;;;9.50;92.50;;;;;;4968972;28;19932;-78
2024/02/04 11:13:36;;;;;;;;;;;9.50;92.50;;;;;;4970135;28;19930;-62
2024/02/04 11:16:16;;;;;;;;;;;9.50;92.60;;;;;;4969218;28;20020;-62
2024/02/04 11:18:55;;;;;;;;;;;9.50;92.60;;;;;;4969463;28;19926;-63
2024/02/04 11:21:40;;;;;;;;;;;9.60;92.50;;;;;;4969597;28;20384;-62
2024/02/04 11:24:22;;;;;;;;;;;9.60;92.50;;;;;;4968715;28;19926;-63
2024/02/04 11:26:56;;;;;;;;;;;9.60;92.50;;;;;;4969462;28;19934;-65
2024/02/04 11:29:29;;;;;;;;;;;9.60;92.50;;;;;;4969668;28;20281;-61
2024/02/04 11:31:57;;;;;;;;;;;9.60;92.50;;;;;;4969876;28;19930;-62
2024/02/04 11:34:30;;;;;;;;;;;9.60;92.50;;;;;;4963506;28;19934;-62
2024/02/04 11:37:14;;;;;;;;;;;9.70;92.50;;;;;;4969418;28;19930;-63
2024/02/04 11:39:53;;;;;;;;;;;9.70;92.60;;;;;;4969751;28;19942;-65
2024/02/04 11:42:26;;;;;;;;;;;9.70;92.60;;;;;;4970770;28;20370;-62
2024/02/04 11:45:14;;;;;;;;;;;9.70;92.50;;;;;;4972995;28;20017;-61
2024/02/04 11:47:47;;;;;;;;;;;9.70;92.50;;;;;;4971934;28;19938;-60
2024/02/04 11:50:29;;;;;;;;;;;9.70;92.50;;;;;;4972204;28;19996;-63
2024/02/04 11:53:05;;;;;;;;;;;9.70;92.50;;;;;;4972276;28;19950;-62
2024/02/04 11:55:41;;;;;;;;;;;9.80;92.50;;;;;;4972875;28;20432;-62
2024/02/04 11:58:14;;;;;;;;;;;9.80;92.50;;;;;;4972439;28;19930;-62
2024/02/04 12:00:49;;;;;;;;;;;9.90;92.50;;;;;;4973173;28;20017;-63
2024/02/04 12:03:29;;;;;;;;;;;9.90;92.50;;;;;;4971859;28;19953;-61
2024/02/04 12:06:03;;;;;;;;;;;9.90;92.50;;;;;;4971536;28;20338;-61
2024/02/04 12:08:36;;;;;;;;;;;9.90;92.60;;;;;;4972336;28;19964;-63
2024/02/04 12:11:11;;;;;;;;;;;9.90;92.50;;;;;;4973776;28;20412;-62
2024/02/04 12:13:45;;;;;;;;;;;9.90;92.50;;;;;;4972879;28;20032;-61
2024/02/04 12:16:18;;;;;;;;;;;9.90;92.40;;;;;;4973594;28;20016;-62
2024/02/04 12:18:50;;;;;;;;;;;9.90;92.30;;;;;;4973799;28;19930;-62
2024/02/04 12:21:23;;;;;;;;;;;10.00;92.30;;;;;;4973076;28;20388;-66
2024/02/04 12:23:57;;;;;;;;;;;9.90;92.20;;;;;;4971892;28;19980;-63
2024/02/04 12:26:31;;;;;;;;;;;10.00;92.20;;;;;;4972476;28;19934;-61
2024/02/04 12:29:05;;;;;;;;;;;10.00;92.10;;;;;;4972593;28;20697;-62
2024/02/04 12:31:38;;;;;;;;;;;10.10;92.10;;;;;;4971521;28;20400;-64
2024/02/04 12:34:04;;;;;;;;;;;10.10;92.10;;;;;;4971534;28;20037;-63
2024/02/04 12:36:37;;;;;;;;;;;10.10;92.10;;;;;;4971541;28;20440;-62
2024/02/04 12:39:11;;;;;;;;;;;10.10;92.10;;;;;;4971580;28;20366;-62
2024/02/04 12:41:51;;;;;;;;;;;10.10;92.20;;;;;;4968229;28;19934;-62
2024/02/04 12:44:25;;;;;;;;;;;10.00;92.20;;;;;;4972708;28;20445;-62
2024/02/04 12:46:59;;;;;;;;;;;10.00;92.30;;;;;;4964415;28;20309;-61
2024/02/04 12:49:31;;;;;;;;;;;10.00;92.40;;;;;;4970611;28;19926;-62
2024/02/04 12:52:05;;;;;;;;;;;10.00;92.30;;;;;;4970795;28;19926;-63
2024/02/04 12:54:42;;;;;;;;;;;10.00;92.30;;;;;;4968740;28;19930;-61
2024/02/04 12:57:24;;;;;;;;;;;10.00;92.30;;;;;;4970203;28;19930;-61
2024/02/04 13:00:06;;;;;;;;;;;10.00;92.30;;;;;;4970552;28;19934;-62
2024/02/04 13:02:40;;;;;;;;;;;10.00;92.30;;;;;;4970186;28;19961;-63
2024/02/04 13:05:22;;;;;;;;;;;10.00;92.30;;;;;;4969050;28;19981;-62
2024/02/04 13:07:56;;;;;;;;;;;10.00;92.30;;;;;;4969143;28;20013;-62
2024/02/04 13:10:30;;;;;;;;;;;10.00;92.30;;;;;;4970387;28;19926;-62
2024/02/04 13:13:06;;;;;;;;;;;10.10;92.20;;;;;;4969293;28;19941;-62
2024/02/04 13:15:40;;;;;;;;;;;10.10;92.20;;;;;;4971016;28;19989;-62
2024/02/04 13:18:15;;;;;;;;;;;10.10;92.10;;;;;;4972830;28;19934;-62
2024/02/04 13:20:48;;;;;;;;;;;10.10;92.10;;;;;;4970909;28;19938;-61
2024/02/04 13:23:21;;;;;;;;;;;10.10;92.10;;;;;;4967755;28;19926;-63
2024/02/04 13:25:54;;;;;;;;;;;10.10;92.00;;;;;;4970475;28;19937;-62
2024/02/04 13:28:29;;;;;;;;;;;10.00;92.00;;;;;;4969799;28;20013;-63
2024/02/04 13:31:02;;;;;;;;;;;10.10;92.00;;;;;;4970580;28;19980;-63
2024/02/04 13:33:36;;;;;;;;;;;10.10;92.00;;;;;;4970828;28;19926;-60
2024/02/04 13:36:10;;;;;;;;;;;10.10;92.10;;;;;;4969385;28;19930;-60
2024/02/04 13:38:43;;;;;;;;;;;10.10;92.20;;;;;;4969880;28;19930;-60
2024/02/04 13:41:16;;;;;;;;;;;10.10;92.20;;;;;;4970381;28;19937;-60
2024/02/04 13:43:44;;;;;;;;;;;10.10;92.30;;;;;;4969176;28;19930;-60
2024/02/04 13:46:18;;;;;;;;;;;10.10;92.20;;;;;;4967526;28;20048;-60
2024/02/04 13:48:51;;;;;;;;;;;10.10;92.20;;;;;;4969601;28;19927;-59
2024/02/04 13:51:24;;;;;;;;;;;10.10;92.20;;;;;;4968736;28;19932;-61
2024/02/04 13:53:56;;;;;;;;;;;10.10;92.20;;;;;;4968487;28;19926;-60
2024/02/04 13:56:29;;;;;;;;;;;10.10;92.10;;;;;;4968886;28;19938;-61
2024/02/04 13:59:06;;;;;;;;;;;10.10;92.10;;;;;;4968212;28;19937;-60
2024/02/04 14:01:38;;;;;;;;;;;10.10;92.10;;;;;;4967174;28;20416;-61
2024/02/04 14:04:11;;;;;;;;;;;10.10;92.10;;;;;;4968861;28;20296;-59
2024/02/04 14:06:44;;;;;;;;;;;10.10;92.10;;;;;;4968458;28;20016;-60
2024/02/04 14:09:32;;;;;;;;;;;10.10;92.20;;;;;;4967605;28;20389;-60
2024/02/04 14:12:12;;;;;;;;;;;10.00;92.20;;;;;;4968206;28;20393;-62
2024/02/04 14:14:47;;;;;;;;;;;10.00;92.30;;;;;;4966224;28;19977;-59
2024/02/04 14:17:20;;;;;;;;;;;10.10;92.30;;;;;;4968667;28;19952;-60
2024/02/04 14:19:54;;;;;;;;;;;10.10;92.20;;;;;;4967859;28;20020;-59
2024/02/04 14:22:27;;;;;;;;;;;10.10;92.10;;;;;;4969586;28;19926;-60
2024/02/04 14:25:00;;;;;;;;;;;10.10;92.10;;;;;;4968368;28;19930;-60
2024/02/04 14:27:34;;;;;;;;;;;10.10;92.10;;;;;;4968645;28;20024;-61
2024/02/04 14:30:09;;;;;;;;;;;10.10;92.10;;;;;;4969731;28;19977;-59
2024/02/04 14:32:43;;;;;;;;;;;10.00;92.20;;;;;;4968947;28;19980;-59
2024/02/04 14:35:15;;;;;;;;;;;10.00;92.20;;;;;;4965776;28;19985;-59
2024/02/04 14:37:48;;;;;;;;;;;10.10;92.10;;;;;;4968972;28;19937;-60
2024/02/04 14:40:22;;;;;;;;;;;10.10;92.00;;;;;;4967887;28;19961;-60
2024/02/04 14:42:55;;;;;;;;;;;10.10;92.00;;;;;;4968658;28;19941;-64
2024/02/04 14:45:29;;;;;;;;;;;10.10;91.90;;;;;;4967282;28;19941;-65
2024/02/04 14:48:02;;;;;;;;;;;10.10;91.80;;;;;;4967493;28;19941;-64
2024/02/04 14:50:36;;;;;;;;;;;10.10;91.80;;;;;;4966768;28;19934;-65
2024/02/04 14:53:02;;;;;;;;;;;10.10;91.80;;;;;;4969163;28;19934;-65
2024/02/04 14:55:36;;;;;;;;;;;10.10;91.80;;;;;;4969453;28;19934;-65
2024/02/04 14:58:09;;;;;;;;;;;10.10;91.70;;;;;;4966519;28;19934;-65
2024/02/04 15:00:43;;;;;;;;;;;10.10;91.60;;;;;;4969370;28;19930;-66
2024/02/04 15:03:17;;;;;;;;;;;10.10;91.60;;;;;;4968156;28;20020;-65
2024/02/04 15:05:50;;;;;;;;;;;10.10;91.50;;;;;;4970236;28;19926;-65